Terminal Aerodrome Forecast
Issued by NWS

Home | Current Version | Previous Version | Text Only | Print | Product List | Glossary On
Versions: 1 2 3 4 5 6 7 8 9 10 11 12 13 14 15 16
000
FTUS41 KBTV 302320
TAFMSS
TAF
KMSS 302320Z 3100/3124 23011KT P6SM VCSH OVC040
      TEMPO 3100/3102 4SM -RA
     FM310300 29011G18KT 5SM -RA BR OVC030
     FM310600 33011KT 6SM -RA BR OVC025
     FM310800 01009KT P6SM VCSH OVC035=

USA.gov is the U.S. government's official web portal to all federal, state and local government web resources and services.